createdAt,value
2023-03-02T00:03:35.188Z,6.84
2023-03-02T00:08:38.864Z,5.32
2023-03-02T00:13:42.572Z,5.22
2023-03-02T00:18:45.133Z,7.41
2023-03-02T00:23:47.625Z,7.89
2023-03-02T00:28:50.161Z,6.06
2023-03-02T00:33:56.285Z,4.92
2023-03-02T00:38:58.855Z,4.69
2023-03-02T00:44:01.380Z,6.96
2023-03-02T00:49:03.968Z,8.07
2023-03-02T00:54:06.533Z,6.38
2023-03-02T00:59:26.400Z,5.08
2023-03-02T01:04:38.568Z,6.62
2023-03-02T01:09:43.235Z,7.79
2023-03-02T01:14:48.473Z,6.02
2023-03-02T01:19:52.310Z,4.80
2023-03-02T01:24:54.793Z,5.84
2023-03-02T01:29:57.307Z,7.93
2023-03-02T01:34:59.852Z,7.18
2023-03-02T01:40:05.728Z,5.44
2023-03-02T01:45:45.556Z,6.06
2023-03-02T01:50:48.316Z,6.90
2023-03-02T01:55:51.210Z,5.78
2023-03-02T02:00:55.582Z,7.35
2023-03-02T02:06:18.029Z,6.11
2023-03-02T02:11:20.762Z,4.46
2023-03-02T02:16:23.329Z,4.33
2023-03-02T02:21:28.069Z,6.66
2023-03-02T02:26:40.791Z,6.34
2023-03-02T02:31:57.382Z,4.51
2023-03-02T02:37:06.903Z,5.25
2023-03-02T02:42:19.674Z,6.59
2023-03-02T02:47:22.828Z,4.72
2023-03-02T02:52:28.183Z,4.31
2023-03-02T02:57:31.022Z,6.47
2023-03-02T03:02:39.810Z,6.59
2023-03-02T03:07:43.069Z,4.75
2023-03-02T03:12:46.272Z,3.74
2023-03-02T03:17:56.040Z,5.41
2023-03-02T03:23:00.708Z,6.73
2023-03-02T03:28:04.012Z,4.92
2023-03-02T03:33:06.752Z,4.52
2023-03-02T03:38:09.266Z,6.66
2023-03-02T03:43:13.707Z,6.95
2023-03-02T03:48:16.163Z,4.85
2023-03-02T03:53:18.725Z,4.70
2023-03-02T03:58:21.278Z,6.87
2023-03-02T04:03:23.857Z,6.91
2023-03-02T04:08:26.437Z,4.91
2023-03-02T04:13:28.956Z,4.71
2023-03-02T04:18:31.439Z,6.90
2023-03-02T04:23:33.929Z,7.22
2023-03-02T04:28:36.536Z,5.20
2023-03-02T04:33:39.120Z,6.16
2023-03-02T04:38:41.739Z,7.19
2023-03-02T04:43:44.269Z,5.28
2023-03-02T04:48:46.983Z,3.89
2023-03-02T04:53:55.173Z,4.69
2023-03-02T04:58:58.193Z,6.94
2023-03-02T05:04:03.119Z,7.79
2023-03-02T05:09:06.190Z,5.85
2023-03-02T05:14:11.820Z,4.07
2023-03-02T05:19:14.707Z,5.21
2023-03-02T05:24:17.702Z,7.24
2023-03-02T05:29:20.285Z,7.25
2023-03-02T05:34:22.866Z,5.18
2023-03-02T05:39:25.429Z,6.40
2023-03-02T05:44:27.943Z,7.42
2023-03-02T05:49:30.415Z,5.47
2023-03-02T05:54:32.920Z,4.85
2023-03-02T05:59:35.551Z,6.73
2023-03-02T06:04:43.022Z,7.62
2023-03-02T06:09:45.662Z,5.77
2023-03-02T06:14:48.847Z,4.17
2023-03-02T06:19:51.348Z,4.95
2023-03-02T06:24:56.611Z,7.16
2023-03-02T06:29:59.211Z,7.99
2023-03-02T06:35:03.549Z,6.16
2023-03-02T06:40:10.817Z,4.69
2023-03-02T06:45:13.398Z,5.13
2023-03-02T06:50:16.042Z,7.34
2023-03-02T06:55:18.660Z,7.39
2023-03-02T07:00:28.265Z,5.51
2023-03-02T07:05:33.920Z,6.44
2023-03-02T07:10:37.874Z,7.94
2023-03-02T07:15:40.583Z,6.35
2023-03-02T07:20:43.159Z,5.67
2023-03-02T07:25:45.700Z,7.61
2023-03-02T07:30:48.282Z,7.33
2023-03-02T07:35:50.996Z,7.01
2023-03-02T07:40:53.701Z,8.06
2023-03-02T07:45:59.683Z,6.25
2023-03-02T07:51:04.514Z,5.72
2023-03-02T07:56:11.443Z,7.70
2023-03-02T08:01:15.017Z,6.90
2023-03-02T08:06:17.924Z,6.40
2023-03-02T08:11:20.485Z,7.44
2023-03-02T08:16:24.793Z,5.75
2023-03-02T08:21:28.834Z,5.93
2023-03-02T08:26:31.425Z,7.73
2023-03-02T08:31:34.304Z,6.80
2023-03-02T08:36:37.061Z,5.40
2023-03-02T08:41:39.887Z,6.77
2023-03-02T08:46:42.415Z,7.51
2023-03-02T08:51:46.045Z,6.08
2023-03-02T08:56:49.253Z,7.63
2023-03-02T09:01:51.744Z,8.86
2023-03-02T09:06:54.302Z,7.35
2023-03-02T09:11:56.916Z,6.09
2023-03-02T09:16:59.517Z,5.34
2023-03-02T09:22:02.105Z,5.44
2023-03-02T09:27:04.655Z,7.84
2023-03-02T09:32:07.217Z,7.20
2023-03-02T09:37:09.758Z,7.14
2023-03-02T09:42:50.844Z,8.27
2023-03-02T09:47:58.405Z,6.40
2023-03-02T09:53:23.871Z,5.32
2023-03-02T09:58:34.293Z,6.70
2023-03-02T10:04:01.384Z,7.90
2023-03-02T10:09:03.990Z,6.42
2023-03-02T10:14:24.138Z,5.55
2023-03-02T10:19:41.696Z,7.07
2023-03-02T10:25:01.868Z,8.69
2023-03-02T10:30:21.689Z,7.23
2023-03-02T10:35:26.848Z,6.25
2023-03-02T10:41:03.335Z,8.17
2023-03-02T10:46:08.705Z,7.44
2023-03-02T10:51:22.046Z,6.23
2023-03-02T10:56:24.690Z,7.31
2023-03-02T11:01:27.243Z,8.40
2023-03-02T11:06:30.208Z,7.23
2023-03-02T11:11:33.596Z,6.54
2023-03-02T11:16:36.446Z,7.02
2023-03-02T11:21:58.453Z,7.86
2023-03-02T11:27:07.999Z,7.02
2023-03-02T11:32:20.058Z,6.59
2023-03-02T11:37:29.564Z,6.96
2023-03-02T11:42:36.153Z,8.29
2023-03-02T11:47:43.252Z,7.58
2023-03-02T11:52:52.120Z,7.18
2023-03-02T12:03:06.564Z,7.53
2023-03-02T12:08:15.185Z,9.42
2023-03-02T12:13:26.020Z,8.50
2023-03-02T12:18:44.086Z,8.00
2023-03-02T12:23:49.792Z,7.54
2023-03-02T12:29:06.711Z,7.11
2023-03-02T12:34:24.624Z,6.94
2023-03-02T12:39:33.048Z,6.94
2023-03-02T12:44:55.269Z,6.90
2023-03-02T12:50:01.920Z,6.85
2023-03-02T12:55:18.096Z,7.49
2023-03-02T13:00:24.780Z,8.90
2023-03-02T13:05:33.494Z,8.19
2023-03-02T13:10:40.199Z,7.90
2023-03-02T13:15:53.034Z,7.75
2023-03-02T13:20:55.776Z,7.56
2023-03-02T13:26:00.997Z,7.45
2023-03-02T13:31:07.073Z,7.34
2023-03-02T13:36:17.091Z,7.29
2023-03-02T13:41:27.726Z,7.26
2023-03-02T13:46:36.165Z,7.27
2023-03-02T13:51:47.583Z,8.15
2023-03-02T13:56:52.167Z,9.98
2023-03-02T14:01:55.288Z,8.96
2023-03-02T14:06:57.809Z,8.37
2023-03-02T14:12:00.335Z,8.09
2023-03-02T14:17:16.710Z,7.96
2023-03-02T14:22:20.125Z,7.74
2023-03-02T14:27:28.259Z,7.60
2023-03-02T14:32:31.272Z,7.59
2023-03-02T14:37:33.931Z,8.37
2023-03-02T14:42:36.442Z,9.86
2023-03-02T14:47:39.668Z,10.26
2023-03-02T14:52:48.115Z,10.38
2023-03-02T14:57:54.608Z,10.59
2023-03-02T15:02:58.526Z,10.72
2023-03-02T15:08:01.213Z,10.71
2023-03-02T15:13:03.842Z,9.80
2023-03-02T15:18:06.813Z,8.70
2023-03-02T15:23:09.357Z,7.86
2023-03-02T15:28:11.871Z,7.25
2023-03-02T15:33:14.412Z,6.78
2023-03-02T15:38:16.983Z,6.44
2023-03-02T15:43:19.591Z,6.17
2023-03-02T15:48:22.099Z,5.92
2023-03-02T15:53:25.206Z,5.69
2023-03-02T15:58:27.688Z,6.54
2023-03-02T16:03:30.206Z,8.68
2023-03-02T16:08:32.745Z,7.55
2023-03-02T16:13:35.592Z,6.44
2023-03-02T16:18:38.097Z,5.74
2023-03-02T16:23:40.579Z,6.15
2023-03-02T16:28:43.204Z,8.54
2023-03-02T16:33:46.952Z,7.92
2023-03-02T16:38:49.495Z,6.32
2023-03-02T16:43:54.811Z,5.43
2023-03-02T16:48:57.927Z,6.77
2023-03-02T16:54:00.592Z,8.77
2023-03-02T16:59:03.164Z,7.77
2023-03-02T17:04:06.184Z,6.10
2023-03-02T17:09:08.821Z,6.18
2023-03-02T17:14:11.835Z,8.33
2023-03-02T17:19:14.489Z,7.75
2023-03-02T17:24:17.056Z,6.00
2023-03-02T17:29:19.716Z,6.69
2023-03-02T17:34:22.312Z,8.25
2023-03-02T17:39:25.196Z,6.62
2023-03-02T17:44:27.826Z,5.70
2023-03-02T17:49:31.127Z,7.70
2023-03-02T17:54:33.654Z,8.06
2023-03-02T17:59:36.502Z,6.15
2023-03-02T18:04:39.139Z,5.00
2023-03-02T18:09:43.190Z,6.22
2023-03-02T18:14:45.767Z,8.06
2023-03-02T18:19:48.847Z,6.87
2023-03-02T18:24:52.847Z,5.17
2023-03-02T18:29:55.526Z,5.16
2023-03-02T18:34:58.188Z,7.36
2023-03-02T18:40:00.976Z,7.22
2023-03-02T18:45:05.005Z,5.30
2023-03-02T18:50:08.108Z,5.14
2023-03-02T18:55:11.373Z,7.30
2023-03-02T19:00:21.634Z,7.20
2023-03-02T19:05:27.025Z,5.19
2023-03-02T19:10:29.638Z,4.19
2023-03-02T19:15:34.755Z,5.83
2023-03-02T19:20:37.314Z,7.48
2023-03-02T19:25:40.115Z,6.35
2023-03-02T19:30:42.752Z,4.57
2023-03-02T19:35:45.543Z,4.53
2023-03-02T19:40:48.118Z,6.73
2023-03-02T19:45:50.792Z,7.07
2023-03-02T19:50:53.429Z,5.04
2023-03-02T19:56:00.491Z,3.77
2023-03-02T20:01:04.360Z,4.07
2023-03-02T20:06:07.051Z,6.41
2023-03-02T20:11:11.200Z,7.40
2023-03-02T20:16:14.270Z,5.65
2023-03-02T20:21:16.957Z,4.11
2023-03-02T20:26:20.269Z,4.13
2023-03-02T20:31:24.822Z,6.34
2023-03-02T20:36:31.598Z,6.59
2023-03-02T20:41:35.147Z,4.48
2023-03-02T20:46:42.573Z,4.11
2023-03-02T20:51:52.595Z,6.26
2023-03-02T20:56:55.781Z,6.31
2023-03-02T21:01:58.588Z,4.25
2023-03-02T21:07:01.342Z,3.97
2023-03-02T21:12:05.402Z,6.06
2023-03-02T21:17:08.770Z,6.27
2023-03-02T21:22:11.326Z,4.16
2023-03-02T21:27:13.947Z,4.43
2023-03-02T21:32:16.793Z,6.01
2023-03-02T21:37:19.405Z,5.87
2023-03-02T21:42:21.927Z,3.72
2023-03-02T21:47:24.455Z,2.27
2023-03-02T21:52:27.440Z,2.38
2023-03-02T21:57:30.404Z,4.63
2023-03-02T22:02:32.934Z,5.91
2023-03-02T22:07:35.536Z,4.91
2023-03-02T22:12:38.090Z,2.69
2023-03-02T22:17:41.981Z,3.07
2023-03-02T22:22:44.915Z,4.89
2023-03-02T22:27:47.514Z,4.93
2023-03-02T22:32:50.145Z,2.90
2023-03-02T22:38:02.019Z,1.64
2023-03-02T22:43:25.492Z,3.06
2023-03-02T22:48:30.161Z,4.96
2023-03-02T22:53:34.053Z,5.59
2023-03-02T22:58:47.964Z,3.60
2023-03-02T23:04:15.219Z,2.86
2023-03-02T23:09:21.730Z,4.72
2023-03-02T23:14:47.574Z,5.86
2023-03-02T23:19:51.079Z,4.66
2023-03-02T23:24:53.955Z,2.63
2023-03-02T23:29:56.617Z,2.29
2023-03-02T23:34:59.158Z,4.11
2023-03-02T23:40:01.676Z,5.20
2023-03-02T23:45:05.333Z,5.70
2023-03-02T23:50:08.846Z,4.27
2023-03-02T23:55:11.694Z,2.35
